sensor_id;sensor_type;location;lat;lon;timestamp;temperature;humidity
22098;DHT22;11215;51.938;8.464;2022-10-22T00:00:56;15.80;75.60
22098;DHT22;11215;51.938;8.464;2022-10-22T00:03:22;15.80;75.70
22098;DHT22;11215;51.938;8.464;2022-10-22T00:05:48;15.80;75.70
22098;DHT22;11215;51.938;8.464;2022-10-22T00:08:14;15.80;75.80
22098;DHT22;11215;51.938;8.464;2022-10-22T00:10:40;15.80;76.70
22098;DHT22;11215;51.938;8.464;2022-10-22T00:13:06;15.80;76.00
22098;DHT22;11215;51.938;8.464;2022-10-22T00:15:32;15.80;76.10
22098;DHT22;11215;51.938;8.464;2022-10-22T00:17:58;15.80;76.20
22098;DHT22;11215;51.938;8.464;2022-10-22T00:20:24;15.80;76.30
22098;DHT22;11215;51.938;8.464;2022-10-22T00:22:50;15.80;76.30
22098;DHT22;11215;51.938;8.464;2022-10-22T00:25:16;15.80;76.20
22098;DHT22;11215;51.938;8.464;2022-10-22T00:27:42;15.80;76.20
22098;DHT22;11215;51.938;8.464;2022-10-22T00:30:09;15.80;76.20
22098;DHT22;11215;51.938;8.464;2022-10-22T00:32:36;15.80;76.20
22098;DHT22;11215;51.938;8.464;2022-10-22T00:35:02;15.80;76.20
22098;DHT22;11215;51.938;8.464;2022-10-22T00:37:28;15.80;76.10
22098;DHT22;11215;51.938;8.464;2022-10-22T00:39:55;15.80;76.10
22098;DHT22;11215;51.938;8.464;2022-10-22T00:42:23;15.80;76.00
22098;DHT22;11215;51.938;8.464;2022-10-22T00:50:53;15.70;76.00
22098;DHT22;11215;51.938;8.464;2022-10-22T00:52:54;15.70;75.90
22098;DHT22;11215;51.938;8.464;2022-10-22T00:55:22;15.70;75.90
22098;DHT22;11215;51.938;8.464;2022-10-22T00:57:53;15.70;76.00
22098;DHT22;11215;51.938;8.464;2022-10-22T01:00:20;15.70;76.80
22098;DHT22;11215;51.938;8.464;2022-10-22T01:02:47;15.70;76.00
22098;DHT22;11215;51.938;8.464;2022-10-22T01:05:14;15.70;76.10
22098;DHT22;11215;51.938;8.464;2022-10-22T01:07:46;15.70;76.20
22098;DHT22;11215;51.938;8.464;2022-10-22T01:18:50;15.70;76.10
22098;DHT22;11215;51.938;8.464;2022-10-22T01:21:25;15.70;76.40
22098;DHT22;11215;51.938;8.464;2022-10-22T01:29:52;15.60;76.30
22098;DHT22;11215;51.938;8.464;2022-10-22T01:32:23;15.60;76.10
22098;DHT22;11215;51.938;8.464;2022-10-22T01:34:57;15.60;76.10
22098;DHT22;11215;51.938;8.464;2022-10-22T01:37:28;15.60;76.20
22098;DHT22;11215;51.938;8.464;2022-10-22T01:39:56;15.60;76.20
22098;DHT22;11215;51.938;8.464;2022-10-22T01:42:23;15.60;76.20
22098;DHT22;11215;51.938;8.464;2022-10-22T01:44:49;15.50;76.30
22098;DHT22;11215;51.938;8.464;2022-10-22T01:47:17;15.60;76.40
22098;DHT22;11215;51.938;8.464;2022-10-22T01:50:09;15.50;76.30
22098;DHT22;11215;51.938;8.464;2022-10-22T01:52:44;15.50;76.30
22098;DHT22;11215;51.938;8.464;2022-10-22T01:55:18;15.50;76.20
22098;DHT22;11215;51.938;8.464;2022-10-22T01:58:02;15.50;76.30
22098;DHT22;11215;51.938;8.464;2022-10-22T02:00:34;15.50;76.30
22098;DHT22;11215;51.938;8.464;2022-10-22T02:03:05;15.50;76.40
22098;DHT22;11215;51.938;8.464;2022-10-22T02:05:43;15.50;76.50
22098;DHT22;11215;51.938;8.464;2022-10-22T02:08:16;15.50;76.60
22098;DHT22;11215;51.938;8.464;2022-10-22T02:10:44;15.50;76.60
22098;DHT22;11215;51.938;8.464;2022-10-22T02:13:35;15.50;76.60
22098;DHT22;11215;51.938;8.464;2022-10-22T02:16:07;15.50;76.70
22098;DHT22;11215;51.938;8.464;2022-10-22T02:18:37;15.50;76.40
22098;DHT22;11215;51.938;8.464;2022-10-22T02:21:05;15.50;76.40
22098;DHT22;11215;51.938;8.464;2022-10-22T02:23:31;15.50;76.40
22098;DHT22;11215;51.938;8.464;2022-10-22T02:26:06;15.50;76.40
22098;DHT22;11215;51.938;8.464;2022-10-22T02:28:51;15.40;76.50
22098;DHT22;11215;51.938;8.464;2022-10-22T02:31:22;15.50;76.50
22098;DHT22;11215;51.938;8.464;2022-10-22T02:33:52;15.40;76.30
22098;DHT22;11215;51.938;8.464;2022-10-22T02:36:20;15.50;76.30
22098;DHT22;11215;51.938;8.464;2022-10-22T02:38:48;15.50;76.30
22098;DHT22;11215;51.938;8.464;2022-10-22T02:41:16;15.40;76.30
22098;DHT22;11215;51.938;8.464;2022-10-22T02:43:49;15.40;76.30
22098;DHT22;11215;51.938;8.464;2022-10-22T02:46:15;15.40;76.30
22098;DHT22;11215;51.938;8.464;2022-10-22T02:48:41;15.40;76.10
22098;DHT22;11215;51.938;8.464;2022-10-22T02:51:07;15.40;76.10
22098;DHT22;11215;51.938;8.464;2022-10-22T02:53:33;15.40;76.10
22098;DHT22;11215;51.938;8.464;2022-10-22T02:55:59;15.40;76.20
22098;DHT22;11215;51.938;8.464;2022-10-22T02:58:25;15.30;76.20
22098;DHT22;11215;51.938;8.464;2022-10-22T03:00:51;15.30;76.30
22098;DHT22;11215;51.938;8.464;2022-10-22T03:03:17;15.30;76.40
22098;DHT22;11215;51.938;8.464;2022-10-22T03:05:43;15.30;76.40
22098;DHT22;11215;51.938;8.464;2022-10-22T03:08:12;15.30;76.50
22098;DHT22;11215;51.938;8.464;2022-10-22T03:10:37;15.30;76.50
22098;DHT22;11215;51.938;8.464;2022-10-22T03:13:03;15.30;76.40
22098;DHT22;11215;51.938;8.464;2022-10-22T03:15:29;15.30;76.40
22098;DHT22;11215;51.938;8.464;2022-10-22T03:17:56;15.30;76.40
22098;DHT22;11215;51.938;8.464;2022-10-22T03:20:21;15.20;76.40
22098;DHT22;11215;51.938;8.464;2022-10-22T03:22:47;15.20;76.30
22098;DHT22;11215;51.938;8.464;2022-10-22T03:25:16;15.20;76.10
22098;DHT22;11215;51.938;8.464;2022-10-22T03:27:44;15.20;76.10
22098;DHT22;11215;51.938;8.464;2022-10-22T03:30:11;15.20;76.20
22098;DHT22;11215;51.938;8.464;2022-10-22T03:32:37;15.20;76.30
22098;DHT22;11215;51.938;8.464;2022-10-22T03:35:04;15.20;76.30
22098;DHT22;11215;51.938;8.464;2022-10-22T03:37:30;15.20;76.40
22098;DHT22;11215;51.938;8.464;2022-10-22T03:39:56;15.20;76.60
22098;DHT22;11215;51.938;8.464;2022-10-22T03:42:22;15.10;76.30
22098;DHT22;11215;51.938;8.464;2022-10-22T03:44:48;15.10;76.30
22098;DHT22;11215;51.938;8.464;2022-10-22T03:47:14;15.10;76.30
22098;DHT22;11215;51.938;8.464;2022-10-22T03:49:40;15.10;76.30
22098;DHT22;11215;51.938;8.464;2022-10-22T03:52:08;15.10;76.20
22098;DHT22;11215;51.938;8.464;2022-10-22T03:54:34;15.20;76.40
22098;DHT22;11215;51.938;8.464;2022-10-22T03:57:01;15.10;76.30
22098;DHT22;11215;51.938;8.464;2022-10-22T03:59:27;15.10;76.30
22098;DHT22;11215;51.938;8.464;2022-10-22T04:01:53;15.10;76.20
22098;DHT22;11215;51.938;8.464;2022-10-22T04:04:19;15.10;76.20
22098;DHT22;11215;51.938;8.464;2022-10-22T04:06:46;15.10;76.30
22098;DHT22;11215;51.938;8.464;2022-10-22T04:09:11;15.10;76.40
22098;DHT22;11215;51.938;8.464;2022-10-22T04:11:37;15.10;76.50
22098;DHT22;11215;51.938;8.464;2022-10-22T04:14:04;15.00;76.50
22098;DHT22;11215;51.938;8.464;2022-10-22T04:16:30;15.10;76.60
22098;DHT22;11215;51.938;8.464;2022-10-22T04:18:57;15.10;76.60
22098;DHT22;11215;51.938;8.464;2022-10-22T04:21:24;15.10;76.50
22098;DHT22;11215;51.938;8.464;2022-10-22T04:23:51;15.00;76.30
22098;DHT22;11215;51.938;8.464;2022-10-22T04:26:18;15.00;76.40
22098;DHT22;11215;51.938;8.464;2022-10-22T04:28:45;15.10;76.40
22098;DHT22;11215;51.938;8.464;2022-10-22T04:31:14;15.00;76.40
22098;DHT22;11215;51.938;8.464;2022-10-22T04:33:40;15.00;76.40
22098;DHT22;11215;51.938;8.464;2022-10-22T04:36:11;15.00;76.40
22098;DHT22;11215;51.938;8.464;2022-10-22T04:38:38;15.00;76.40
22098;DHT22;11215;51.938;8.464;2022-10-22T04:41:25;15.00;76.40
22098;DHT22;11215;51.938;8.464;2022-10-22T04:43:53;14.90;76.40
22098;DHT22;11215;51.938;8.464;2022-10-22T04:46:19;15.00;76.40
22098;DHT22;11215;51.938;8.464;2022-10-22T04:48:45;14.90;76.40
22098;DHT22;11215;51.938;8.464;2022-10-22T04:51:15;14.90;76.40
22098;DHT22;11215;51.938;8.464;2022-10-22T04:53:41;14.90;76.40
22098;DHT22;11215;51.938;8.464;2022-10-22T04:58:38;14.90;76.60
22098;DHT22;11215;51.938;8.464;2022-10-22T05:01:12;14.90;76.60
22098;DHT22;11215;51.938;8.464;2022-10-22T05:03:38;14.90;76.60
22098;DHT22;11215;51.938;8.464;2022-10-22T05:06:04;14.90;76.50
22098;DHT22;11215;51.938;8.464;2022-10-22T05:08:30;14.90;76.40
22098;DHT22;11215;51.938;8.464;2022-10-22T05:10:56;14.90;76.40
22098;DHT22;11215;51.938;8.464;2022-10-22T05:13:22;14.90;76.50
22098;DHT22;11215;51.938;8.464;2022-10-22T05:15:48;14.90;76.60
22098;DHT22;11215;51.938;8.464;2022-10-22T05:18:14;14.90;76.50
22098;DHT22;11215;51.938;8.464;2022-10-22T05:20:42;14.80;76.30
22098;DHT22;11215;51.938;8.464;2022-10-22T05:23:08;14.80;76.20
22098;DHT22;11215;51.938;8.464;2022-10-22T05:25:38;14.80;76.20
22098;DHT22;11215;51.938;8.464;2022-10-22T05:28:04;14.80;76.10
22098;DHT22;11215;51.938;8.464;2022-10-22T05:30:30;14.80;76.20
22098;DHT22;11215;51.938;8.464;2022-10-22T05:32:56;14.80;76.10
22098;DHT22;11215;51.938;8.464;2022-10-22T05:35:23;14.70;76.10
22098;DHT22;11215;51.938;8.464;2022-10-22T05:37:48;14.70;76.10
22098;DHT22;11215;51.938;8.464;2022-10-22T05:40:15;14.70;76.10
22098;DHT22;11215;51.938;8.464;2022-10-22T05:42:40;14.70;76.10
22098;DHT22;11215;51.938;8.464;2022-10-22T05:45:06;14.70;76.20
22098;DHT22;11215;51.938;8.464;2022-10-22T05:47:33;14.70;76.30
22098;DHT22;11215;51.938;8.464;2022-10-22T05:49:58;14.70;76.30
22098;DHT22;11215;51.938;8.464;2022-10-22T05:52:24;14.70;76.40
22098;DHT22;11215;51.938;8.464;2022-10-22T05:54:50;14.70;76.40
22098;DHT22;11215;51.938;8.464;2022-10-22T05:57:16;14.70;76.40
22098;DHT22;11215;51.938;8.464;2022-10-22T05:59:42;14.70;76.40
22098;DHT22;11215;51.938;8.464;2022-10-22T06:02:09;14.70;76.40
22098;DHT22;11215;51.938;8.464;2022-10-22T06:04:34;14.70;76.50
22098;DHT22;11215;51.938;8.464;2022-10-22T06:07:01;14.70;76.50
22098;DHT22;11215;51.938;8.464;2022-10-22T06:09:34;14.70;76.70
22098;DHT22;11215;51.938;8.464;2022-10-22T06:12:01;14.70;77.90
22098;DHT22;11215;51.938;8.464;2022-10-22T06:14:28;14.70;77.10
22098;DHT22;11215;51.938;8.464;2022-10-22T06:16:54;14.70;77.30
22098;DHT22;11215;51.938;8.464;2022-10-22T06:19:21;14.70;77.40
22098;DHT22;11215;51.938;8.464;2022-10-22T06:21:48;14.70;77.60
22098;DHT22;11215;51.938;8.464;2022-10-22T06:24:17;14.80;77.60
22098;DHT22;11215;51.938;8.464;2022-10-22T06:26:43;14.80;77.40
22098;DHT22;11215;51.938;8.464;2022-10-22T06:29:09;14.80;77.40
22098;DHT22;11215;51.938;8.464;2022-10-22T06:31:35;14.80;77.40
22098;DHT22;11215;51.938;8.464;2022-10-22T06:34:03;14.80;77.20
22098;DHT22;11215;51.938;8.464;2022-10-22T06:36:28;14.80;77.10
22098;DHT22;11215;51.938;8.464;2022-10-22T06:38:55;14.90;77.10
22098;DHT22;11215;51.938;8.464;2022-10-22T06:41:22;14.80;77.00
22098;DHT22;11215;51.938;8.464;2022-10-22T06:43:49;14.90;77.00
22098;DHT22;11215;51.938;8.464;2022-10-22T06:46:19;14.80;76.90
22098;DHT22;11215;51.938;8.464;2022-10-22T06:48:59;14.90;77.00
22098;DHT22;11215;51.938;8.464;2022-10-22T06:51:26;14.90;77.20
22098;DHT22;11215;51.938;8.464;2022-10-22T06:53:53;14.90;77.20
22098;DHT22;11215;51.938;8.464;2022-10-22T06:56:21;14.90;77.20
22098;DHT22;11215;51.938;8.464;2022-10-22T06:58:49;14.90;77.30
22098;DHT22;11215;51.938;8.464;2022-10-22T07:01:16;14.90;77.40
22098;DHT22;11215;51.938;8.464;2022-10-22T07:03:42;14.90;77.40
22098;DHT22;11215;51.938;8.464;2022-10-22T07:06:12;14.90;77.30
22098;DHT22;11215;51.938;8.464;2022-10-22T07:08:40;14.90;77.40
22098;DHT22;11215;51.938;8.464;2022-10-22T07:11:15;14.90;77.40
22098;DHT22;11215;51.938;8.464;2022-10-22T07:13:41;14.90;77.50
22098;DHT22;11215;51.938;8.464;2022-10-22T07:16:09;15.00;77.50
22098;DHT22;11215;51.938;8.464;2022-10-22T07:18:36;15.00;77.50
22098;DHT22;11215;51.938;8.464;2022-10-22T07:21:02;15.00;77.50
22098;DHT22;11215;51.938;8.464;2022-10-22T07:23:28;15.00;77.50
22098;DHT22;11215;51.938;8.464;2022-10-22T07:25:55;15.00;77.60
22098;DHT22;11215;51.938;8.464;2022-10-22T07:28:22;15.10;77.80
22098;DHT22;11215;51.938;8.464;2022-10-22T07:30:48;15.10;77.80
22098;DHT22;11215;51.938;8.464;2022-10-22T07:33:14;15.10;77.80
22098;DHT22;11215;51.938;8.464;2022-10-22T07:35:40;15.10;77.80
22098;DHT22;11215;51.938;8.464;2022-10-22T07:38:07;15.10;77.80
22098;DHT22;11215;51.938;8.464;2022-10-22T07:40:33;15.20;77.80
22098;DHT22;11215;51.938;8.464;2022-10-22T07:43:00;15.20;77.90
22098;DHT22;11215;51.938;8.464;2022-10-22T07:45:26;15.20;77.90
22098;DHT22;11215;51.938;8.464;2022-10-22T07:47:52;15.20;77.90
22098;DHT22;11215;51.938;8.464;2022-10-22T07:50:18;15.30;78.10
22098;DHT22;11215;51.938;8.464;2022-10-22T07:52:44;15.30;78.10
22098;DHT22;11215;51.938;8.464;2022-10-22T07:55:11;15.30;78.20
22098;DHT22;11215;51.938;8.464;2022-10-22T07:57:38;15.30;78.30
22098;DHT22;11215;51.938;8.464;2022-10-22T08:00:06;15.40;78.40
22098;DHT22;11215;51.938;8.464;2022-10-22T08:02:32;15.40;78.60
22098;DHT22;11215;51.938;8.464;2022-10-22T08:04:58;15.40;78.60
22098;DHT22;11215;51.938;8.464;2022-10-22T08:07:24;15.50;79.60
22098;DHT22;11215;51.938;8.464;2022-10-22T08:09:50;15.50;79.00
22098;DHT22;11215;51.938;8.464;2022-10-22T08:12:16;15.60;78.90
22098;DHT22;11215;51.938;8.464;2022-10-22T08:14:42;15.60;79.10
22098;DHT22;11215;51.938;8.464;2022-10-22T08:17:08;15.70;79.30
22098;DHT22;11215;51.938;8.464;2022-10-22T08:19:34;15.80;79.40
22098;DHT22;11215;51.938;8.464;2022-10-22T08:22:00;15.80;79.40
22098;DHT22;11215;51.938;8.464;2022-10-22T08:24:27;15.90;79.50
22098;DHT22;11215;51.938;8.464;2022-10-22T08:26:53;15.90;79.50
22098;DHT22;11215;51.938;8.464;2022-10-22T08:29:21;16.00;79.80
22098;DHT22;11215;51.938;8.464;2022-10-22T08:31:48;16.10;80.00
22098;DHT22;11215;51.938;8.464;2022-10-22T08:34:14;16.10;79.90
22098;DHT22;11215;51.938;8.464;2022-10-22T08:36:40;16.20;79.90
22098;DHT22;11215;51.938;8.464;2022-10-22T08:39:06;16.30;79.80
22098;DHT22;11215;51.938;8.464;2022-10-22T08:41:40;16.40;79.90
22098;DHT22;11215;51.938;8.464;2022-10-22T08:49:45;16.60;80.20
22098;DHT22;11215;51.938;8.464;2022-10-22T08:52:16;16.70;80.00
22098;DHT22;11215;51.938;8.464;2022-10-22T08:54:57;16.70;80.00
22098;DHT22;11215;51.938;8.464;2022-10-22T08:57:48;16.80;80.30
22098;DHT22;11215;51.938;8.464;2022-10-22T09:00:18;16.90;80.00
22098;DHT22;11215;51.938;8.464;2022-10-22T09:08:27;17.10;79.90
22098;DHT22;11215;51.938;8.464;2022-10-22T09:13:39;17.30;80.20
22098;DHT22;11215;51.938;8.464;2022-10-22T09:16:17;17.40;80.10
22098;DHT22;11215;51.938;8.464;2022-10-22T09:19:14;17.40;81.00
22098;DHT22;11215;51.938;8.464;2022-10-22T09:24:53;17.60;80.10
22098;DHT22;11215;51.938;8.464;2022-10-22T09:27:39;17.70;80.00
22098;DHT22;11215;51.938;8.464;2022-10-22T09:30:06;17.80;80.00
22098;DHT22;11215;51.938;8.464;2022-10-22T09:32:32;17.90;79.80
22098;DHT22;11215;51.938;8.464;2022-10-22T09:34:58;17.90;79.60
22098;DHT22;11215;51.938;8.464;2022-10-22T09:37:28;18.00;79.30
22098;DHT22;11215;51.938;8.464;2022-10-22T09:39:56;18.00;79.20
22098;DHT22;11215;51.938;8.464;2022-10-22T09:42:24;18.10;79.10
22098;DHT22;11215;51.938;8.464;2022-10-22T09:44:55;18.20;79.00
22098;DHT22;11215;51.938;8.464;2022-10-22T09:47:33;18.30;79.00
22098;DHT22;11215;51.938;8.464;2022-10-22T09:52:52;18.40;79.00
22098;DHT22;11215;51.938;8.464;2022-10-22T09:55:18;18.40;78.70
22098;DHT22;11215;51.938;8.464;2022-10-22T09:57:55;18.50;78.40
22098;DHT22;11215;51.938;8.464;2022-10-22T10:00:23;18.60;77.90
22098;DHT22;11215;51.938;8.464;2022-10-22T10:02:54;18.60;78.00
22098;DHT22;11215;51.938;8.464;2022-10-22T10:05:29;18.70;78.00
22098;DHT22;11215;51.938;8.464;2022-10-22T10:07:55;18.80;77.70
22098;DHT22;11215;51.938;8.464;2022-10-22T10:10:34;18.80;77.60
22098;DHT22;11215;51.938;8.464;2022-10-22T10:18:42;19.00;75.30
22098;DHT22;11215;51.938;8.464;2022-10-22T10:24:18;19.10;74.60
22098;DHT22;11215;51.938;8.464;2022-10-22T10:26:57;19.20;74.60
22098;DHT22;11215;51.938;8.464;2022-10-22T10:29:35;19.20;74.40
22098;DHT22;11215;51.938;8.464;2022-10-22T10:35:27;19.30;73.50
22098;DHT22;11215;51.938;8.464;2022-10-22T10:40:41;19.30;73.70
22098;DHT22;11215;51.938;8.464;2022-10-22T10:48:59;19.40;72.90
22098;DHT22;11215;51.938;8.464;2022-10-22T10:56:57;19.40;73.40
22098;DHT22;11215;51.938;8.464;2022-10-22T11:07:48;19.60;72.60
22098;DHT22;11215;51.938;8.464;2022-10-22T11:10:45;19.60;72.70
22098;DHT22;11215;51.938;8.464;2022-10-22T11:21:39;19.60;71.80
22098;DHT22;11215;51.938;8.464;2022-10-22T11:24:22;19.60;71.80
22098;DHT22;11215;51.938;8.464;2022-10-22T11:27:20;19.50;71.90
22098;DHT22;11215;51.938;8.464;2022-10-22T11:29:56;19.50;72.10
22098;DHT22;11215;51.938;8.464;2022-10-22T11:32:25;19.50;72.30
22098;DHT22;11215;51.938;8.464;2022-10-22T11:35:04;19.40;72.70
22098;DHT22;11215;51.938;8.464;2022-10-22T11:37:32;19.40;72.90
22098;DHT22;11215;51.938;8.464;2022-10-22T11:40:13;19.40;73.20
22098;DHT22;11215;51.938;8.464;2022-10-22T11:42:48;19.40;73.20
22098;DHT22;11215;51.938;8.464;2022-10-22T11:53:37;19.40;73.30
22098;DHT22;11215;51.938;8.464;2022-10-22T12:11:19;19.50;72.20
22098;DHT22;11215;51.938;8.464;2022-10-22T12:16:38;19.50;72.10
22098;DHT22;11215;51.938;8.464;2022-10-22T12:21:41;19.50;71.50
22098;DHT22;11215;51.938;8.464;2022-10-22T12:24:12;19.50;71.20
22098;DHT22;11215;51.938;8.464;2022-10-22T12:26:39;19.50;71.10
22098;DHT22;11215;51.938;8.464;2022-10-22T12:29:10;19.50;71.40
22098;DHT22;11215;51.938;8.464;2022-10-22T12:31:38;19.50;70.70
22098;DHT22;11215;51.938;8.464;2022-10-22T12:34:04;19.40;70.80
22098;DHT22;11215;51.938;8.464;2022-10-22T12:36:33;19.40;70.80
22098;DHT22;11215;51.938;8.464;2022-10-22T12:39:01;19.40;70.60
22098;DHT22;11215;51.938;8.464;2022-10-22T12:41:33;19.40;70.90
22098;DHT22;11215;51.938;8.464;2022-10-22T12:44:00;19.40;70.50
22098;DHT22;11215;51.938;8.464;2022-10-22T12:46:29;19.40;70.80
22098;DHT22;11215;51.938;8.464;2022-10-22T12:48:59;19.40;70.80
22098;DHT22;11215;51.938;8.464;2022-10-22T12:51:25;19.40;70.70
22098;DHT22;11215;51.938;8.464;2022-10-22T12:53:54;19.40;71.10
22098;DHT22;11215;51.938;8.464;2022-10-22T12:56:24;19.40;71.00
22098;DHT22;11215;51.938;8.464;2022-10-22T12:58:59;19.40;71.10
22098;DHT22;11215;51.938;8.464;2022-10-22T13:01:33;19.40;71.00
22098;DHT22;11215;51.938;8.464;2022-10-22T13:04:19;19.50;71.20
22098;DHT22;11215;51.938;8.464;2022-10-22T13:06:50;19.50;70.30
22098;DHT22;11215;51.938;8.464;2022-10-22T13:09:22;19.50;70.50
22098;DHT22;11215;51.938;8.464;2022-10-22T13:17:38;19.60;69.90
22098;DHT22;11215;51.938;8.464;2022-10-22T13:20:19;19.70;69.30
22098;DHT22;11215;51.938;8.464;2022-10-22T13:22:58;19.70;69.70
22098;DHT22;11215;51.938;8.464;2022-10-22T13:25:32;19.70;69.10
22098;DHT22;11215;51.938;8.464;2022-10-22T13:30:34;19.70;69.20
22098;DHT22;11215;51.938;8.464;2022-10-22T13:33:05;19.70;69.40
22098;DHT22;11215;51.938;8.464;2022-10-22T13:35:36;19.70;69.10
22098;DHT22;11215;51.938;8.464;2022-10-22T13:38:11;19.80;69.20
22098;DHT22;11215;51.938;8.464;2022-10-22T13:40:40;19.80;69.10
22098;DHT22;11215;51.938;8.464;2022-10-22T13:43:06;19.80;69.10
22098;DHT22;11215;51.938;8.464;2022-10-22T13:45:32;19.80;68.80
22098;DHT22;11215;51.938;8.464;2022-10-22T13:47:58;19.80;68.80
22098;DHT22;11215;51.938;8.464;2022-10-22T13:50:24;19.80;68.80
22098;DHT22;11215;51.938;8.464;2022-10-22T13:52:53;19.80;68.50
22098;DHT22;11215;51.938;8.464;2022-10-22T13:55:22;19.80;68.30
22098;DHT22;11215;51.938;8.464;2022-10-22T13:57:57;19.80;68.10
22098;DHT22;11215;51.938;8.464;2022-10-22T14:00:26;19.70;67.90
22098;DHT22;11215;51.938;8.464;2022-10-22T14:02:55;19.70;68.30
22098;DHT22;11215;51.938;8.464;2022-10-22T14:05:23;19.70;67.90
22098;DHT22;11215;51.938;8.464;2022-10-22T14:07:49;19.70;68.10
22098;DHT22;11215;51.938;8.464;2022-10-22T14:10:19;19.70;68.00
22098;DHT22;11215;51.938;8.464;2022-10-22T14:12:45;19.70;68.10
22098;DHT22;11215;51.938;8.464;2022-10-22T14:15:13;19.70;67.80
22098;DHT22;11215;51.938;8.464;2022-10-22T14:17:41;19.70;67.60
22098;DHT22;11215;51.938;8.464;2022-10-22T14:20:17;19.60;67.50
22098;DHT22;11215;51.938;8.464;2022-10-22T14:22:46;19.60;67.20
22098;DHT22;11215;51.938;8.464;2022-10-22T14:25:19;19.60;67.50
22098;DHT22;11215;51.938;8.464;2022-10-22T14:27:46;19.60;67.20
22098;DHT22;11215;51.938;8.464;2022-10-22T14:30:23;19.60;67.30
22098;DHT22;11215;51.938;8.464;2022-10-22T14:32:49;19.60;67.00
22098;DHT22;11215;51.938;8.464;2022-10-22T14:35:21;19.60;67.50
22098;DHT22;11215;51.938;8.464;2022-10-22T14:37:47;19.60;67.00
22098;DHT22;11215;51.938;8.464;2022-10-22T14:40:16;19.50;67.50
22098;DHT22;11215;51.938;8.464;2022-10-22T14:42:44;19.50;67.30
22098;DHT22;11215;51.938;8.464;2022-10-22T14:45:22;19.50;67.40
22098;DHT22;11215;51.938;8.464;2022-10-22T14:47:48;19.50;66.90
22098;DHT22;11215;51.938;8.464;2022-10-22T14:50:14;19.50;67.60
22098;DHT22;11215;51.938;8.464;2022-10-22T14:52:41;19.50;67.70
22098;DHT22;11215;51.938;8.464;2022-10-22T14:55:09;19.50;67.50
22098;DHT22;11215;51.938;8.464;2022-10-22T14:57:35;19.50;67.50
22098;DHT22;11215;51.938;8.464;2022-10-22T15:00:02;19.40;67.60
22098;DHT22;11215;51.938;8.464;2022-10-22T15:02:28;19.50;67.70
22098;DHT22;11215;51.938;8.464;2022-10-22T15:04:55;19.40;67.50
22098;DHT22;11215;51.938;8.464;2022-10-22T15:07:20;19.40;67.50
22098;DHT22;11215;51.938;8.464;2022-10-22T15:09:49;19.40;67.60
22098;DHT22;11215;51.938;8.464;2022-10-22T15:12:15;19.40;67.80
22098;DHT22;11215;51.938;8.464;2022-10-22T15:14:41;19.40;67.80
22098;DHT22;11215;51.938;8.464;2022-10-22T15:17:07;19.40;67.80
22098;DHT22;11215;51.938;8.464;2022-10-22T15:19:33;19.30;67.60
22098;DHT22;11215;51.938;8.464;2022-10-22T15:21:59;19.30;67.60
22098;DHT22;11215;51.938;8.464;2022-10-22T15:24:26;19.30;67.80
22098;DHT22;11215;51.938;8.464;2022-10-22T15:26:51;19.30;67.80
22098;DHT22;11215;51.938;8.464;2022-10-22T15:29:18;19.30;67.90
22098;DHT22;11215;51.938;8.464;2022-10-22T15:31:53;19.30;67.90
22098;DHT22;11215;51.938;8.464;2022-10-22T15:34:30;19.30;67.60
22098;DHT22;11215;51.938;8.464;2022-10-22T15:36:58;19.20;67.30
22098;DHT22;11215;51.938;8.464;2022-10-22T15:39:24;19.20;67.70
22098;DHT22;11215;51.938;8.464;2022-10-22T15:41:51;19.20;67.70
22098;DHT22;11215;51.938;8.464;2022-10-22T15:44:29;19.20;67.70
22098;DHT22;11215;51.938;8.464;2022-10-22T15:46:55;19.20;67.70
22098;DHT22;11215;51.938;8.464;2022-10-22T15:49:22;19.20;67.90
22098;DHT22;11215;51.938;8.464;2022-10-22T15:51:49;19.20;67.80
22098;DHT22;11215;51.938;8.464;2022-10-22T15:54:18;19.20;67.90
22098;DHT22;11215;51.938;8.464;2022-10-22T15:56:44;19.20;67.90
22098;DHT22;11215;51.938;8.464;2022-10-22T15:59:12;19.10;67.80
22098;DHT22;11215;51.938;8.464;2022-10-22T16:01:38;19.20;67.70
22098;DHT22;11215;51.938;8.464;2022-10-22T16:04:05;19.10;67.80
22098;DHT22;11215;51.938;8.464;2022-10-22T16:06:54;19.10;67.90
22098;DHT22;11215;51.938;8.464;2022-10-22T16:09:24;19.10;67.60
22098;DHT22;11215;51.938;8.464;2022-10-22T16:11:51;19.10;68.00
22098;DHT22;11215;51.938;8.464;2022-10-22T16:14:18;19.10;68.00
22098;DHT22;11215;51.938;8.464;2022-10-22T16:16:47;19.10;68.00
22098;DHT22;11215;51.938;8.464;2022-10-22T16:19:15;19.00;67.90
22098;DHT22;11215;51.938;8.464;2022-10-22T16:21:41;19.00;67.90
22098;DHT22;11215;51.938;8.464;2022-10-22T16:24:08;19.00;67.90
22098;DHT22;11215;51.938;8.464;2022-10-22T16:26:34;18.90;67.90
22098;DHT22;11215;51.938;8.464;2022-10-22T16:29:00;18.90;67.90
22098;DHT22;11215;51.938;8.464;2022-10-22T16:31:26;18.90;68.00
22098;DHT22;11215;51.938;8.464;2022-10-22T16:33:52;18.90;68.00
22098;DHT22;11215;51.938;8.464;2022-10-22T16:36:20;18.80;67.90
22098;DHT22;11215;51.938;8.464;2022-10-22T16:38:47;18.80;68.00
22098;DHT22;11215;51.938;8.464;2022-10-22T16:41:18;18.80;68.00
22098;DHT22;11215;51.938;8.464;2022-10-22T16:43:46;18.80;67.80
22098;DHT22;11215;51.938;8.464;2022-10-22T16:46:20;18.70;67.90
22098;DHT22;11215;51.938;8.464;2022-10-22T16:48:49;18.70;67.70
22098;DHT22;11215;51.938;8.464;2022-10-22T16:51:18;18.60;67.70
22098;DHT22;11215;51.938;8.464;2022-10-22T16:53:44;18.60;67.80
22098;DHT22;11215;51.938;8.464;2022-10-22T16:56:11;18.60;67.90
22098;DHT22;11215;51.938;8.464;2022-10-22T16:58:42;18.50;67.90
22098;DHT22;11215;51.938;8.464;2022-10-22T17:01:09;18.50;68.00
22098;DHT22;11215;51.938;8.464;2022-10-22T17:03:35;18.50;68.20
22098;DHT22;11215;51.938;8.464;2022-10-22T17:06:02;18.40;68.10
22098;DHT22;11215;51.938;8.464;2022-10-22T17:08:29;18.40;68.20
22098;DHT22;11215;51.938;8.464;2022-10-22T17:10:55;18.40;68.20
22098;DHT22;11215;51.938;8.464;2022-10-22T17:13:21;18.40;68.20
22098;DHT22;11215;51.938;8.464;2022-10-22T17:15:47;18.30;68.10
22098;DHT22;11215;51.938;8.464;2022-10-22T17:18:14;18.30;68.10
22098;DHT22;11215;51.938;8.464;2022-10-22T17:20:41;18.30;68.10
22098;DHT22;11215;51.938;8.464;2022-10-22T17:23:07;18.20;67.90
22098;DHT22;11215;51.938;8.464;2022-10-22T17:25:43;18.20;67.90
22098;DHT22;11215;51.938;8.464;2022-10-22T17:28:10;18.10;67.60
22098;DHT22;11215;51.938;8.464;2022-10-22T17:30:36;18.10;67.80
22098;DHT22;11215;51.938;8.464;2022-10-22T17:33:06;18.00;67.80
22098;DHT22;11215;51.938;8.464;2022-10-22T17:35:33;18.00;67.90
22098;DHT22;11215;51.938;8.464;2022-10-22T17:37:59;18.00;67.90
22098;DHT22;11215;51.938;8.464;2022-10-22T17:40:25;17.90;67.90
22098;DHT22;11215;51.938;8.464;2022-10-22T17:42:52;17.90;67.90